createdAt,value
2017-06-23T00:00:46.561Z,1009.06
2017-06-23T00:01:56.481Z,1009.04
2017-06-23T00:03:06.391Z,1008.99
2017-06-23T00:04:15.696Z,1009.02
2017-06-23T00:05:25.614Z,1009
2017-06-23T00:06:35.855Z,1009.08
2017-06-23T00:07:46.068Z,1009.06
2017-06-23T00:08:55.704Z,1009.08
2017-06-23T00:10:05.626Z,1009.09
2017-06-23T00:11:15.538Z,1009.11
2017-06-23T00:12:25.456Z,1009.09
2017-06-23T00:13:34.454Z,1009.12
2017-06-23T00:14:44.682Z,1009.05
2017-06-23T00:15:54.597Z,1009.14
2017-06-23T00:17:04.839Z,1009.14
2017-06-23T00:18:14.746Z,1009.16
2017-06-23T00:19:24.350Z,1009.16
2017-06-23T00:20:34.258Z,1009.16
2017-06-23T00:21:44.497Z,1009.2
2017-06-23T00:22:54.708Z,1009.18
2017-06-23T00:24:04.015Z,1009.17
2017-06-23T00:25:13.934Z,1009.13
2017-06-23T00:26:23.540Z,1009.21
2017-06-23T00:27:33.155Z,1009.16
2017-06-23T00:28:43.068Z,1009.18
2017-06-23T00:29:53.292Z,1009.16
2017-06-23T00:31:03.503Z,1009.16
2017-06-23T00:32:12.812Z,1009.18
2017-06-23T00:33:23.031Z,1009.16
2017-06-23T00:34:32.944Z,1009.18
2017-06-23T00:35:42.851Z,1009.2
2017-06-23T00:36:52.758Z,1009.2
2017-06-23T00:38:02.348Z,1009.18
2017-06-23T00:39:12.281Z,1009.18
2017-06-23T00:40:22.190Z,1009.16
2017-06-23T00:41:32.098Z,1009.16
2017-06-23T00:42:41.718Z,1009.19
2017-06-23T00:43:51.630Z,1009.21
2017-06-23T00:45:01.563Z,1009.16
2017-06-23T00:46:11.476Z,1009.16
2017-06-23T00:47:21.388Z,1009.22
2017-06-23T00:48:31.595Z,1009.18
2017-06-23T00:49:41.810Z,1009.22
2017-06-23T00:50:51.722Z,1009.21
2017-06-23T00:52:00.726Z,1009.2
2017-06-23T00:53:10.659Z,1009.2
2017-06-23T00:54:20.904Z,1009.18
2017-06-23T00:55:30.822Z,1009.11
2017-06-23T00:56:40.738Z,1009.09
2017-06-23T00:57:50.049Z,1009.13
2017-06-23T00:58:59.967Z,1009.11
2017-06-23T01:00:09.881Z,1009.12
2017-06-23T01:01:20.096Z,1009.12
2017-06-23T01:02:30.020Z,1009.12
2017-06-23T01:03:40.260Z,1009.1
2017-06-23T01:04:49.870Z,1009.13
2017-06-23T01:05:59.779Z,1009.15
2017-06-23T01:07:09.705Z,1009.12
2017-06-23T01:08:19.927Z,1009.18
2017-06-23T01:09:29.841Z,1009.16
2017-06-23T01:10:39.741Z,1009.19
2017-06-23T01:11:49.673Z,1009.19
2017-06-23T01:12:59.900Z,1009.2
2017-06-23T01:14:09.510Z,1009.18
2017-06-23T01:15:19.127Z,1009.17
2017-06-23T01:16:29.341Z,1009.16
2017-06-23T01:17:39.250Z,1009.2
2017-06-23T01:18:49.166Z,1009.16
2017-06-23T01:19:59.376Z,1009.16
2017-06-23T01:21:08.677Z,1009.15
2017-06-23T01:22:18.590Z,1009.12
2017-06-23T01:23:27.892Z,1009.15
2017-06-23T01:24:37.841Z,1009.14
2017-06-23T01:25:48.069Z,1009.14
2017-06-23T01:26:57.683Z,1009.15
2017-06-23T01:28:07.293Z,1009.1
2017-06-23T01:29:16.586Z,1009.11
2017-06-23T01:30:25.950Z,1009.12
2017-06-23T01:31:36.204Z,1009.12
2017-06-23T01:32:46.434Z,1009.12
2017-06-23T01:33:56.349Z,1009.13
2017-06-23T01:35:06.566Z,1009.14
2017-06-23T01:36:16.486Z,1009.16
2017-06-23T01:37:26.426Z,1009.15
2017-06-23T01:38:35.715Z,1009.15
2017-06-23T01:39:45.638Z,1009.17
2017-06-23T01:40:55.548Z,1009.16
2017-06-23T01:42:04.849Z,1009.18
2017-06-23T01:43:14.461Z,1009.15
2017-06-23T01:44:24.375Z,1009.12
2017-06-23T01:45:34.295Z,1009.18
2017-06-23T01:46:44.215Z,1009.1
2017-06-23T01:47:54.429Z,1009.09
2017-06-23T01:49:04.344Z,1009.18
2017-06-23T01:50:13.942Z,1009.12
2017-06-23T01:51:24.160Z,1009.13
2017-06-23T01:52:34.761Z,1009.17
2017-06-23T01:53:45.005Z,1009.12
2017-06-23T01:54:54.906Z,1009.19
2017-06-23T01:56:04.204Z,1009.14
2017-06-23T01:57:13.821Z,1009.17
2017-06-23T01:58:23.415Z,1009.17
2017-06-23T01:59:33.342Z,1009.1
2017-06-23T02:00:43.265Z,1009.09
2017-06-23T02:01:53.475Z,1009.08
2017-06-23T02:03:03.074Z,1009.06
2017-06-23T02:04:13.294Z,1009.09
2017-06-23T02:05:23.516Z,1009.02
2017-06-23T02:06:33.425Z,1009.02
2017-06-23T02:07:43.646Z,1009.04
2017-06-23T02:08:53.561Z,1009
2017-06-23T02:10:03.183Z,1009.05
2017-06-23T02:11:12.479Z,1009.03
2017-06-23T02:12:22.697Z,1009.03
2017-06-23T02:13:32.308Z,1009
2017-06-23T02:14:42.223Z,1008.93
2017-06-23T02:15:51.210Z,1008.95
2017-06-23T02:17:01.426Z,1008.92
2017-06-23T02:18:11.348Z,1008.92
2017-06-23T02:19:20.958Z,1008.94
2017-06-23T02:20:30.880Z,1008.89
2017-06-23T02:21:40.799Z,1008.92
2017-06-23T02:22:50.428Z,1008.95
2017-06-23T02:24:00.647Z,1008.97
2017-06-23T02:25:10.561Z,1008.94
2017-06-23T02:26:20.484Z,1008.95
2017-06-23T02:27:30.394Z,1008.96
2017-06-23T02:28:40.314Z,1008.98
2017-06-23T02:29:49.923Z,1008.95
2017-06-23T02:31:00.162Z,1008.97
2017-06-23T02:32:10.084Z,1008.97
2017-06-23T02:33:20.308Z,1008.97
2017-06-23T02:34:30.537Z,1008.97
2017-06-23T02:35:40.445Z,1008.98
2017-06-23T02:36:50.357Z,1008.96
2017-06-23T02:38:00.592Z,1008.96
2017-06-23T02:39:10.192Z,1008.97
2017-06-23T02:40:20.108Z,1008.97
2017-06-23T02:41:30.012Z,1008.95
2017-06-23T02:42:39.932Z,1008.9
2017-06-23T02:43:49.845Z,1008.96
2017-06-23T02:44:59.458Z,1008.96
2017-06-23T02:46:09.372Z,1008.93
2017-06-23T02:47:19.299Z,1008.88
2017-06-23T02:48:29.217Z,1008.87
2017-06-23T02:49:39.659Z,1008.92
2017-06-23T02:50:50.255Z,1008.89
2017-06-23T02:52:00.184Z,1008.91
2017-06-23T02:53:09.794Z,1008.92
2017-06-23T02:54:19.093Z,1008.86
2017-06-23T02:55:29.008Z,1008.89
2017-06-23T02:56:38.935Z,1008.94
2017-06-23T02:57:48.842Z,1008.93
2017-06-23T02:58:59.069Z,1008.91
2017-06-23T03:00:08.976Z,1008.88
2017-06-23T03:01:18.883Z,1008.9
2017-06-23T03:02:28.790Z,1008.84
2017-06-23T03:03:37.781Z,1008.87
2017-06-23T03:04:48.003Z,1008.87
2017-06-23T03:05:58.215Z,1008.87
2017-06-23T03:07:08.138Z,1008.87
2017-06-23T03:08:18.366Z,1008.9
2017-06-23T03:09:28.297Z,1008.88
2017-06-23T03:10:38.517Z,1008.89
2017-06-23T03:11:48.126Z,1008.92
2017-06-23T03:12:58.049Z,1008.92
2017-06-23T03:14:07.666Z,1008.89
2017-06-23T03:15:17.871Z,1008.9
2017-06-23T03:16:28.119Z,1008.91
2017-06-23T03:17:38.035Z,1008.96
2017-06-23T03:18:47.947Z,1008.96
2017-06-23T03:19:57.249Z,1008.98
2017-06-23T03:21:07.181Z,1008.99
2017-06-23T03:22:16.780Z,1009.04
2017-06-23T03:23:27.020Z,1009.03
2017-06-23T03:24:37.264Z,1008.99
2017-06-23T03:25:47.498Z,1009.03
2017-06-23T03:26:57.424Z,1009.07
2017-06-23T03:28:07.642Z,1009.07
2017-06-23T03:29:17.572Z,1009.05
2017-06-23T03:30:27.787Z,1009.08
2017-06-23T03:31:38.032Z,1009.12
2017-06-23T03:32:47.952Z,1009.14
2017-06-23T03:33:57.259Z,1009.1
2017-06-23T03:35:06.879Z,1009.07
2017-06-23T03:36:17.114Z,1009.09
2017-06-23T03:37:27.337Z,1009.1
2017-06-23T03:38:37.578Z,1009.14
2017-06-23T03:39:46.958Z,1009.15
2017-06-23T03:40:56.595Z,1009.19
2017-06-23T03:42:06.524Z,1009.19
2017-06-23T03:43:16.134Z,1009.2
2017-06-23T03:44:26.037Z,1009.16
2017-06-23T03:45:35.649Z,1009.14
2017-06-23T03:46:45.251Z,1009.14
2017-06-23T03:47:55.158Z,1009.15
2017-06-23T03:49:05.372Z,1009.19
2017-06-23T03:50:14.988Z,1009.21
2017-06-23T03:51:24.910Z,1009.22
2017-06-23T03:52:34.825Z,1009.21
2017-06-23T03:53:44.740Z,1009.22
2017-06-23T03:54:54.954Z,1009.18
2017-06-23T03:56:04.868Z,1009.16
2017-06-23T03:57:14.796Z,1009.13
2017-06-23T03:58:24.428Z,1009.13
2017-06-23T03:59:34.036Z,1009.15
2017-06-23T04:00:44.252Z,1009.12
2017-06-23T04:01:54.167Z,1009.09
2017-06-23T04:03:03.776Z,1009.11
2017-06-23T04:04:14.005Z,1009.14
2017-06-23T04:05:24.229Z,1009.23
2017-06-23T04:06:34.459Z,1009.24
2017-06-23T04:07:44.715Z,1009.25
2017-06-23T04:08:54.618Z,1009.31
2017-06-23T04:10:04.535Z,1009.31
2017-06-23T04:11:14.473Z,1009.27
2017-06-23T04:12:24.382Z,1009.3
2017-06-23T04:13:33.989Z,1009.32
2017-06-23T04:14:43.306Z,1009.34
2017-06-23T04:15:52.906Z,1009.36
2017-06-23T04:17:02.829Z,1009.35
2017-06-23T04:18:12.738Z,1009.36
2017-06-23T04:19:22.366Z,1009.4
2017-06-23T04:20:32.271Z,1009.43
2017-06-23T04:21:41.889Z,1009.4
2017-06-23T04:22:51.856Z,1009.41
2017-06-23T04:24:01.772Z,1009.39
2017-06-23T04:25:11.676Z,1009.39
2017-06-23T04:26:21.285Z,1009.47
2017-06-23T04:27:31.222Z,1009.53
2017-06-23T04:28:41.471Z,1009.51
2017-06-23T04:29:51.696Z,1009.5
2017-06-23T04:31:01.923Z,1009.54
2017-06-23T04:32:11.260Z,1009.57
2017-06-23T04:33:21.510Z,1009.59
2017-06-23T04:34:31.757Z,1009.61
2017-06-23T04:35:41.405Z,1009.59
2017-06-23T04:36:51.327Z,1009.57
2017-06-23T04:38:00.934Z,1009.6
2017-06-23T04:39:10.851Z,1009.63
2017-06-23T04:40:20.760Z,1009.56
2017-06-23T04:41:30.993Z,1009.59
2017-06-23T04:42:41.223Z,1009.59
2017-06-23T04:43:51.458Z,1009.64
2017-06-23T04:45:01.434Z,1009.62
2017-06-23T04:46:11.347Z,1009.66
2017-06-23T04:47:21.246Z,1009.68
2017-06-23T04:48:31.169Z,1009.69
2017-06-23T04:49:41.150Z,1009.7
2017-06-23T04:50:51.371Z,1009.68
2017-06-23T04:52:00.986Z,1009.72
2017-06-23T04:53:11.208Z,1009.73
2017-06-23T04:54:20.515Z,1009.73
2017-06-23T04:55:30.731Z,1009.74
2017-06-23T04:56:40.352Z,1009.73
2017-06-23T04:57:50.560Z,1009.76
2017-06-23T04:59:00.470Z,1009.75
2017-06-23T05:00:10.378Z,1009.75
2017-06-23T05:01:20.011Z,1009.76
2017-06-23T05:02:29.935Z,1009.79
2017-06-23T05:03:40.187Z,1009.83
2017-06-23T05:04:49.822Z,1009.79
2017-06-23T05:05:59.127Z,1009.81
2017-06-23T05:07:09.372Z,1009.81
2017-06-23T05:08:19.598Z,1009.84
2017-06-23T05:09:29.824Z,1009.86
2017-06-23T05:10:39.480Z,1009.87
2017-06-23T05:11:49.719Z,1009.86
2017-06-23T05:12:59.346Z,1009.84
2017-06-23T05:14:08.951Z,1009.86
2017-06-23T05:15:18.566Z,1009.92
2017-06-23T05:16:28.806Z,1009.95
2017-06-23T05:17:38.403Z,1009.93
2017-06-23T05:18:48.012Z,1009.93
2017-06-23T05:19:58.225Z,1009.97
2017-06-23T05:21:08.442Z,1009.96
2017-06-23T05:22:18.354Z,1009.98
2017-06-23T05:23:28.578Z,1010.04
2017-06-23T05:24:38.496Z,1010.05
2017-06-23T05:25:48.094Z,1010.07
2017-06-23T05:26:57.401Z,1010.12
2017-06-23T05:28:07.310Z,1010.13
2017-06-23T05:29:16.921Z,1010.14
2017-06-23T05:30:25.915Z,1010.13
2017-06-23T05:31:35.524Z,1010.11
2017-06-23T05:32:45.750Z,1010.12
2017-06-23T05:33:55.361Z,1010.2
2017-06-23T05:35:04.978Z,1010.18
2017-06-23T05:36:14.593Z,1010.21
2017-06-23T05:37:24.208Z,1010.27
2017-06-23T05:38:33.813Z,1010.28
2017-06-23T05:39:43.110Z,1010.3
2017-06-23T05:40:53.326Z,1010.27
2017-06-23T05:42:02.931Z,1010.28
2017-06-23T05:43:12.545Z,1010.28
2017-06-23T05:44:22.459Z,1010.28
2017-06-23T05:45:32.376Z,1010.28
2017-06-23T05:46:42.288Z,1010.25
2017-06-23T05:47:51.583Z,1010.23
2017-06-23T05:49:00.890Z,1010.22
2017-06-23T05:50:11.139Z,1010.24
2017-06-23T05:51:21.063Z,1010.24
2017-06-23T05:52:30.962Z,1010.22
2017-06-23T05:53:40.561Z,1010.23
2017-06-23T05:54:50.808Z,1010.26
2017-06-23T05:56:00.427Z,1010.2
2017-06-23T05:57:10.046Z,1010.19
2017-06-23T05:58:19.966Z,1010.23
2017-06-23T05:59:29.581Z,1010.19
2017-06-23T06:00:38.897Z,1010.22
2017-06-23T06:01:48.207Z,1010.19
2017-06-23T06:02:57.824Z,1010.19
2017-06-23T06:04:08.052Z,1010.25
2017-06-23T06:05:17.984Z,1010.24
2017-06-23T06:06:27.911Z,1010.19
2017-06-23T06:07:37.823Z,1010.21
2017-06-23T06:08:47.433Z,1010.24
2017-06-23T06:09:57.654Z,1010.2
2017-06-23T06:11:07.578Z,1010.2
2017-06-23T06:12:17.811Z,1010.18
2017-06-23T06:13:27.727Z,1010.24
2017-06-23T06:14:37.338Z,1010.27
2017-06-23T06:15:46.941Z,1010.31
2017-06-23T06:16:56.557Z,1010.32
2017-06-23T06:18:06.481Z,1010.36
2017-06-23T06:19:16.403Z,1010.38
2017-06-23T06:20:26.320Z,1010.39
2017-06-23T06:21:36.242Z,1010.46
2017-06-23T06:22:45.545Z,1010.51
2017-06-23T06:23:55.770Z,1010.53
2017-06-23T06:25:05.696Z,1010.49
2017-06-23T06:26:15.619Z,1010.55
2017-06-23T06:27:25.546Z,1010.51
2017-06-23T06:28:35.166Z,1010.55
2017-06-23T06:29:44.811Z,1010.57
2017-06-23T06:30:54.427Z,1010.52
2017-06-23T06:32:03.736Z,1010.53
2017-06-23T06:33:13.663Z,1010.53
2017-06-23T06:34:23.574Z,1010.54
2017-06-23T06:35:33.485Z,1010.59
2017-06-23T06:36:43.086Z,1010.6
2017-06-23T06:37:52.733Z,1010.61
2017-06-23T06:39:02.690Z,1010.65
2017-06-23T06:40:12.612Z,1010.64
2017-06-23T06:41:22.251Z,1010.65
2017-06-23T06:42:32.478Z,1010.68
2017-06-23T06:43:42.721Z,1010.67
2017-06-23T06:44:52.942Z,1010.69
2017-06-23T06:46:02.575Z,1010.71
2017-06-23T06:49:45.199Z,1010.77
2017-06-23T06:50:55.421Z,1010.8
2017-06-23T06:52:05.646Z,1010.81
2017-06-23T06:53:15.975Z,1010.83
2017-06-23T06:56:58.292Z,1010.86
2017-06-23T06:58:08.525Z,1010.82
2017-06-23T07:03:03.458Z,1010.98
2017-06-23T07:04:13.696Z,1010.94
2017-06-23T07:05:23.920Z,1010.94
2017-06-23T07:09:05.601Z,1010.96
2017-06-23T07:10:15.522Z,1010.92
2017-06-23T07:11:25.466Z,1010.96
2017-06-23T07:12:35.389Z,1010.97
2017-06-23T07:13:45.299Z,1010.97
2017-06-23T07:14:55.532Z,1010.94
2017-06-23T07:16:04.847Z,1010.97
2017-06-23T07:17:15.080Z,1010.98
2017-06-23T07:18:25.002Z,1011.02
2017-06-23T07:19:34.296Z,1011.03
2017-06-23T07:20:44.225Z,1011
2017-06-23T07:21:53.875Z,1010.99
2017-06-23T07:23:03.822Z,1011.02
2017-06-23T07:24:13.431Z,1010.98
2017-06-23T07:25:23.691Z,1010.95
2017-06-23T07:26:33.637Z,1011
2017-06-23T07:27:42.978Z,1011
2017-06-23T07:28:52.908Z,1011.02
2017-06-23T07:30:02.853Z,1011.02
2017-06-23T07:31:12.805Z,1011
2017-06-23T07:32:22.731Z,1011
2017-06-23T07:33:32.688Z,1011.05
2017-06-23T07:34:42.615Z,1011.01
2017-06-23T07:35:52.537Z,1011.04
2017-06-23T07:37:02.478Z,1011
2017-06-23T07:38:12.100Z,1011.02
2017-06-23T07:39:21.117Z,1010.99
2017-06-23T07:40:30.434Z,1011.03
2017-06-23T07:41:40.661Z,1011.03
2017-06-23T07:42:50.589Z,1011.06
2017-06-23T07:44:00.824Z,1011.06
2017-06-23T07:45:10.765Z,1011.04
2017-06-23T07:46:20.993Z,1011.02
2017-06-23T07:47:30.643Z,1011.01
2017-06-23T07:48:39.976Z,1011.03
2017-06-23T07:49:49.293Z,1011.05
2017-06-23T07:50:58.616Z,1011.04
2017-06-23T07:52:08.556Z,1011.03
2017-06-23T07:53:18.469Z,1011.06
2017-06-23T07:54:28.389Z,1011.04
2017-06-23T07:55:38.021Z,1011.04
2017-06-23T07:56:47.937Z,1010.98
2017-06-23T07:57:57.914Z,1011.01
2017-06-23T07:59:07.839Z,1010.98
2017-06-23T08:00:18.088Z,1011
2017-06-23T08:01:28.012Z,1011
2017-06-23T08:02:38.244Z,1010.98
2017-06-23T08:03:48.471Z,1010.99
2017-06-23T08:04:58.383Z,1011.03
2017-06-23T08:06:08.625Z,1011.04
2017-06-23T08:07:18.547Z,1011.07
2017-06-23T08:08:28.159Z,1011.1
2017-06-23T08:09:38.385Z,1011.07
2017-06-23T08:10:48.011Z,1011.08
2017-06-23T08:11:57.935Z,1011.06
2017-06-23T08:13:08.161Z,1011.1
2017-06-23T08:14:18.134Z,1011.12
2017-06-23T08:15:27.737Z,1011.1
2017-06-23T08:16:37.357Z,1011.09
2017-06-23T08:17:46.977Z,1011.14
2017-06-23T08:18:56.603Z,1011.14
2017-06-23T08:20:06.855Z,1011.14
2017-06-23T08:21:17.150Z,1011.11
2017-06-23T08:22:26.782Z,1011.11
2017-06-23T08:23:37.030Z,1011.1
2017-06-23T08:24:46.949Z,1011.1
2017-06-23T08:25:56.868Z,1011.1
2017-06-23T08:27:07.132Z,1011.16
2017-06-23T08:28:17.089Z,1011.14
2017-06-23T08:29:26.698Z,1011.16
2017-06-23T08:30:36.628Z,1011.15
2017-06-23T08:31:46.566Z,1011.14
2017-06-23T08:32:56.495Z,1011.11
2017-06-23T08:34:06.114Z,1011.16
2017-06-23T08:35:16.384Z,1011.2
2017-06-23T08:36:26.841Z,1011.19
2017-06-23T08:37:35.854Z,1011.2
2017-06-23T08:38:45.478Z,1011.21
2017-06-23T08:39:55.100Z,1011.2
2017-06-23T08:41:04.427Z,1011.27
2017-06-23T08:42:14.065Z,1011.25
2017-06-23T08:43:24.014Z,1011.25
2017-06-23T08:44:33.957Z,1011.26
2017-06-23T08:45:43.658Z,1011.26
2017-06-23T08:46:53.277Z,1011.29
2017-06-23T08:48:02.964Z,1011.24
2017-06-23T08:49:13.203Z,1011.27
2017-06-23T08:50:22.823Z,1011.31
2017-06-23T08:51:32.759Z,1011.27
2017-06-23T08:52:42.695Z,1011.32
2017-06-23T08:53:52.324Z,1011.35
2017-06-23T08:55:02.272Z,1011.33
2017-06-23T08:56:12.224Z,1011.3
2017-06-23T08:57:22.147Z,1011.32
2017-06-23T08:58:32.396Z,1011.27
2017-06-23T08:59:42.317Z,1011.36
2017-06-23T09:00:52.564Z,1011.3
2017-06-23T09:02:02.511Z,1011.34
2017-06-23T09:03:12.751Z,1011.35
2017-06-23T09:04:22.082Z,1011.28
2017-06-23T09:05:32.344Z,1011.29
2017-06-23T09:06:42.625Z,1011.31
2017-06-23T09:07:52.563Z,1011.3
2017-06-23T09:09:02.173Z,1011.29
2017-06-23T09:10:11.795Z,1011.31
2017-06-23T09:11:22.031Z,1011.37
2017-06-23T09:12:32.287Z,1011.35
2017-06-23T09:13:41.912Z,1011.38
2017-06-23T09:14:51.238Z,1011.39
2017-06-23T09:16:01.577Z,1011.42
2017-06-23T09:17:10.928Z,1011.39
2017-06-23T09:18:21.249Z,1011.38
2017-06-23T09:19:30.894Z,1011.39
2017-06-23T09:20:40.857Z,1011.36
2017-06-23T09:21:50.821Z,1011.38
2017-06-23T09:23:00.441Z,1011.39
2017-06-23T09:24:10.673Z,1011.41
2017-06-23T09:25:20.284Z,1011.43
2017-06-23T09:26:30.220Z,1011.38
2017-06-23T09:27:39.849Z,1011.43
2017-06-23T09:28:49.810Z,1011.46
2017-06-23T09:29:59.732Z,1011.43
2017-06-23T09:31:09.058Z,1011.43
2017-06-23T09:32:18.719Z,1011.4
2017-06-23T09:33:28.681Z,1011.44
2017-06-23T09:34:38.607Z,1011.46
2017-06-23T09:35:48.247Z,1011.39
2017-06-23T09:36:58.164Z,1011.48
2017-06-23T09:38:08.090Z,1011.42
2017-06-23T09:39:18.024Z,1011.49
2017-06-23T09:40:27.952Z,1011.45
2017-06-23T09:41:37.904Z,1011.45
2017-06-23T09:42:47.852Z,1011.46
2017-06-23T09:43:57.793Z,1011.43
2017-06-23T09:45:07.415Z,1011.43
2017-06-23T09:46:17.659Z,1011.49
2017-06-23T09:47:27.901Z,1011.52
2017-06-23T09:48:37.512Z,1011.5
2017-06-23T09:49:47.450Z,1011.48
2017-06-23T09:50:56.786Z,1011.43
2017-06-23T09:52:07.408Z,1011.42
2017-06-23T09:53:17.357Z,1011.42
2017-06-23T09:54:26.679Z,1011.44
2017-06-23T09:55:36.290Z,1011.49
2017-06-23T09:56:46.516Z,1011.47
2017-06-23T09:57:56.439Z,1011.44
2017-06-23T09:59:06.370Z,1011.48
2017-06-23T10:00:15.668Z,1011.42
2017-06-23T10:01:24.973Z,1011.45
2017-06-23T10:02:35.220Z,1011.47
2017-06-23T10:03:44.529Z,1011.48
2017-06-23T10:04:54.142Z,1011.48
2017-06-23T10:06:03.165Z,1011.49
2017-06-23T10:07:13.092Z,1011.48
2017-06-23T10:08:22.716Z,1011.5
2017-06-23T10:09:32.953Z,1011.48
2017-06-23T10:10:42.586Z,1011.49
2017-06-23T10:11:52.824Z,1011.52
2017-06-23T10:13:02.438Z,1011.53
2017-06-23T10:14:12.359Z,1011.48
2017-06-23T10:15:22.350Z,1011.44
2017-06-23T10:16:32.606Z,1011.57
2017-06-23T10:17:41.925Z,1011.58
2017-06-23T10:18:51.534Z,1011.61
2017-06-23T10:20:01.459Z,1011.66
2017-06-23T10:21:11.692Z,1011.64
2017-06-23T10:22:21.311Z,1011.68
2017-06-23T10:23:31.246Z,1011.66
2017-06-23T10:24:40.567Z,1011.63
2017-06-23T10:25:50.514Z,1011.67
2017-06-23T10:27:00.742Z,1011.65
2017-06-23T10:28:10.353Z,1011.66
2017-06-23T10:29:20.588Z,1011.66
2017-06-23T10:30:30.826Z,1011.66
2017-06-23T10:31:40.441Z,1011.67
2017-06-23T10:32:50.371Z,1011.69
2017-06-23T10:34:00.614Z,1011.71
2017-06-23T10:35:09.940Z,1011.63
2017-06-23T10:36:19.876Z,1011.62
2017-06-23T10:37:30.116Z,1011.62
2017-06-23T10:38:40.030Z,1011.61
2017-06-23T10:39:49.948Z,1011.64
2017-06-23T10:40:59.873Z,1011.64
2017-06-23T10:42:09.797Z,1011.65
2017-06-23T10:43:20.104Z,1011.64
2017-06-23T10:44:29.742Z,1011.63
2017-06-23T10:45:39.673Z,1011.62
2017-06-23T10:46:49.591Z,1011.59
2017-06-23T10:47:59.513Z,1011.58
2017-06-23T10:49:09.441Z,1011.53
2017-06-23T10:50:19.385Z,1011.57
2017-06-23T10:51:29.304Z,1011.6
2017-06-23T10:52:38.918Z,1011.61
2017-06-23T10:53:48.538Z,1011.61
2017-06-23T10:54:58.460Z,1011.59
2017-06-23T10:56:08.400Z,1011.61
2017-06-23T10:57:18.340Z,1011.61
2017-06-23T10:58:28.576Z,1011.57
2017-06-23T10:59:38.191Z,1011.55
2017-06-23T11:00:47.805Z,1011.6
2017-06-23T11:01:57.763Z,1011.53
2017-06-23T11:03:07.068Z,1011.49
2017-06-23T11:04:16.705Z,1011.49
2017-06-23T11:05:26.623Z,1011.48
2017-06-23T11:06:36.537Z,1011.45
2017-06-23T11:07:45.853Z,1011.4
2017-06-23T11:08:55.780Z,1011.37
2017-06-23T11:10:05.401Z,1011.42
2017-06-23T11:11:15.623Z,1011.39
2017-06-23T11:12:25.231Z,1011.38
2017-06-23T11:13:35.474Z,1011.35
2017-06-23T11:14:45.713Z,1011.41
2017-06-23T11:15:55.338Z,1011.44
2017-06-23T11:17:05.263Z,1011.39
2017-06-23T11:18:14.565Z,1011.44
2017-06-23T11:19:23.884Z,1011.4
2017-06-23T11:20:33.814Z,1011.43
2017-06-23T11:21:43.735Z,1011.4
2017-06-23T11:22:53.675Z,1011.45
2017-06-23T11:24:03.596Z,1011.43
2017-06-23T11:25:13.522Z,1011.41
2017-06-23T11:26:23.831Z,1011.44
2017-06-23T11:27:33.755Z,1011.48
2017-06-23T11:28:43.679Z,1011.38
2017-06-23T11:29:53.614Z,1011.45
2017-06-23T11:31:03.836Z,1011.4
2017-06-23T11:32:13.758Z,1011.48
2017-06-23T11:33:23.367Z,1011.49
2017-06-23T11:34:33.295Z,1011.5
2017-06-23T11:35:42.601Z,1011.48
2017-06-23T11:36:52.522Z,1011.43
2017-06-23T11:38:02.142Z,1011.45
2017-06-23T11:39:11.796Z,1011.47
2017-06-23T11:40:22.030Z,1011.51
2017-06-23T11:41:31.371Z,1011.54
2017-06-23T11:42:41.622Z,1011.53
2017-06-23T11:43:51.256Z,1011.53
2017-06-23T11:45:01.506Z,1011.48
2017-06-23T11:46:11.459Z,1011.49
2017-06-23T11:47:21.386Z,1011.48
2017-06-23T11:48:31.357Z,1011.47
2017-06-23T11:49:41.275Z,1011.51
2017-06-23T11:50:51.216Z,1011.52
2017-06-23T11:52:00.853Z,1011.53
2017-06-23T11:53:10.466Z,1011.45
2017-06-23T11:54:20.078Z,1011.48
2017-06-23T11:55:29.690Z,1011.5
2017-06-23T11:56:38.988Z,1011.52
2017-06-23T11:57:49.222Z,1011.53
2017-06-23T11:58:58.823Z,1011.51
2017-06-23T12:00:08.744Z,1011.52
2017-06-23T12:01:18.998Z,1011.52
2017-06-23T12:02:28.321Z,1011.47
2017-06-23T12:03:38.237Z,1011.48
2017-06-23T12:04:48.163Z,1011.41
2017-06-23T12:05:58.077Z,1011.46
2017-06-23T12:07:07.680Z,1011.44
2017-06-23T12:08:17.900Z,1011.38
2017-06-23T12:09:27.508Z,1011.44
2017-06-23T12:10:37.451Z,1011.47
2017-06-23T12:11:47.386Z,1011.43
2017-06-23T12:12:56.376Z,1011.47
2017-06-23T12:14:06.608Z,1011.44
2017-06-23T12:15:15.909Z,1011.37
2017-06-23T12:16:25.221Z,1011.4
2017-06-23T12:17:35.446Z,1011.37
2017-06-23T12:18:45.369Z,1011.33
2017-06-23T12:19:54.983Z,1011.3
2017-06-23T12:21:05.221Z,1011.33
2017-06-23T12:22:15.495Z,1011.34
2017-06-23T12:23:25.444Z,1011.33
2017-06-23T12:24:35.370Z,1011.35
2017-06-23T12:25:45.594Z,1011.34
2017-06-23T12:26:55.511Z,1011.3
2017-06-23T12:28:05.439Z,1011.36
2017-06-23T12:29:15.388Z,1011.37
2017-06-23T12:30:25.011Z,1011.39
2017-06-23T12:31:34.963Z,1011.38
2017-06-23T12:32:44.902Z,1011.4
2017-06-23T12:33:54.840Z,1011.37
2017-06-23T12:35:05.068Z,1011.42
2017-06-23T12:36:15.015Z,1011.38
2017-06-23T12:37:24.942Z,1011.39
2017-06-23T12:38:35.174Z,1011.39
2017-06-23T12:39:45.108Z,1011.35
2017-06-23T12:40:55.031Z,1011.34
2017-06-23T12:42:04.644Z,1011.28
2017-06-23T12:43:14.904Z,1011.24
2017-06-23T12:44:24.525Z,1011.32
2017-06-23T12:45:33.852Z,1011.34
2017-06-23T12:46:44.082Z,1011.35
2017-06-23T12:47:54.033Z,1011.28
2017-06-23T12:49:03.965Z,1011.34
2017-06-23T12:50:14.203Z,1011.28
2017-06-23T12:51:24.125Z,1011.23
2017-06-23T12:52:33.740Z,1011.24
2017-06-23T12:53:43.084Z,1011.28
2017-06-23T12:54:53.027Z,1011.24
2017-06-23T12:56:02.634Z,1011.24
2017-06-23T12:57:12.565Z,1011.28
2017-06-23T12:58:21.884Z,1011.21
2017-06-23T12:59:31.814Z,1011.26
2017-06-23T13:00:42.041Z,1011.26
2017-06-23T13:01:51.982Z,1011.21
2017-06-23T13:03:01.911Z,1011.24
2017-06-23T13:04:12.150Z,1011.29
2017-06-23T13:05:21.791Z,1011.25
2017-06-23T13:06:32.031Z,1011.26
2017-06-23T13:07:41.975Z,1011.28
2017-06-23T13:08:51.619Z,1011.23
2017-06-23T13:10:01.856Z,1011.21
2017-06-23T13:11:12.099Z,1011.27
2017-06-23T13:12:21.725Z,1011.23
2017-06-23T13:13:31.968Z,1011.24
2017-06-23T13:14:41.598Z,1011.18
2017-06-23T13:15:51.840Z,1011.21
2017-06-23T13:17:02.063Z,1011.26
2017-06-23T13:18:11.382Z,1011.29
2017-06-23T13:19:21.289Z,1011.17
2017-06-23T13:20:30.903Z,1011.17
2017-06-23T13:21:40.826Z,1011.27
2017-06-23T13:22:50.747Z,1011.19
2017-06-23T13:24:00.665Z,1011.18
2017-06-23T13:25:10.917Z,1011.21
2017-06-23T13:26:20.883Z,1011.15
2017-06-23T13:27:30.804Z,1011.24
2017-06-23T13:28:40.727Z,1011.17
2017-06-23T13:29:50.636Z,1011.09
2017-06-23T13:30:59.941Z,1011.19
2017-06-23T13:32:09.551Z,1011.12
2017-06-23T13:33:18.856Z,1011.17
2017-06-23T13:34:29.098Z,1011.13
2017-06-23T13:35:39.364Z,1011.14
2017-06-23T13:36:49.629Z,1011.09
2017-06-23T13:37:59.369Z,1011.13
2017-06-23T13:39:09.022Z,1011.09
2017-06-23T13:40:18.662Z,1011.08
2017-06-23T13:41:28.582Z,1011.16
2017-06-23T13:42:38.523Z,1011.1
2017-06-23T13:43:48.447Z,1011.14
2017-06-23T13:44:58.361Z,1011.13
2017-06-23T13:46:07.671Z,1011.15
2017-06-23T13:47:17.292Z,1011.15
2017-06-23T13:48:27.236Z,1011.16
2017-06-23T13:49:36.538Z,1011.09
2017-06-23T13:50:46.150Z,1011.15
2017-06-23T13:51:56.386Z,1011.16
2017-06-23T13:53:06.002Z,1011.17
2017-06-23T13:54:15.959Z,1011.08
2017-06-23T13:55:25.267Z,1011.19
2017-06-23T13:56:34.890Z,1011.09
2017-06-23T13:57:44.511Z,1011.07
2017-06-23T13:58:54.839Z,1011.07
2017-06-23T14:00:04.471Z,1011.1
2017-06-23T14:01:14.418Z,1011.16
2017-06-23T14:02:24.418Z,1011.12
2017-06-23T14:03:34.382Z,1011.1
2017-06-23T14:04:44.355Z,1011.09
2017-06-23T14:05:54.282Z,1011.12
2017-06-23T14:07:04.190Z,1011.15
2017-06-23T14:08:14.415Z,1011.16
2017-06-23T14:09:24.333Z,1011.11
2017-06-23T14:10:34.728Z,1011.03
2017-06-23T14:11:45.089Z,1011.04
2017-06-23T14:12:55.416Z,1011.22
2017-06-23T14:14:05.677Z,1011.19
2017-06-23T14:15:14.988Z,1011.16
2017-06-23T14:16:24.920Z,1011.25
2017-06-23T14:17:35.144Z,1011.19
2017-06-23T14:18:45.061Z,1011.18
2017-06-23T14:19:54.982Z,1011.15